Time;durP1;ratioP1;P1;durP2;ratioP2;P2;SDS_P1;SDS_P2;PMS_P1;PMS_P2;Temp;Humidity;BMP_temperature;BMP_pressure;BME280_temperature;BME280_humidity;BME280_pressure;Samples;Min_cycle;Max_cycle;Signal;HPM_P1;HPM_P2
2022/01/18 00:00:18;;;;;;;21.00;8.00;;;6.30;99.90;;;;;;5060742;28;20504;-61
2022/01/18 00:02:46;;;;;;;32.63;10.27;;;6.20;99.90;;;;;;5060179;28;20530;-61
2022/01/18 00:05:15;;;;;;;27.70;11.57;;;6.10;99.90;;;;;;5060555;28;20888;-61
2022/01/18 00:07:44;;;;;;;31.93;11.60;;;6.10;99.90;;;;;;5060676;28;20466;-61
2022/01/18 00:10:12;;;;;;;20.80;9.40;;;6.20;99.90;;;;;;5060293;28;21041;-61
2022/01/18 00:12:56;;;;;;;21.90;8.43;;;6.20;99.90;;;;;;5060881;28;20891;-62
2022/01/18 00:15:39;;;;;;;21.73;10.37;;;6.20;99.90;;;;;;5060739;28;20462;-61
2022/01/18 00:18:11;;;;;;;19.80;10.27;;;6.10;99.90;;;;;;5061085;28;20799;-61
2022/01/18 00:20:53;;;;;;;23.63;10.93;;;6.10;99.90;;;;;;5040027;28;20495;-61
2022/01/18 00:23:25;;;;;;;23.97;10.17;;;6.10;99.90;;;;;;5058093;28;20490;-61
2022/01/18 00:25:58;;;;;;;20.50;10.87;;;6.10;99.90;;;;;;5060847;28;20882;-61
2022/01/18 00:28:26;;;;;;;31.93;11.30;;;6.10;99.90;;;;;;5059314;28;20488;-61
2022/01/18 00:33:51;;;;;;;26.60;12.10;;;6.00;99.90;;;;;;5060136;28;20446;-61
2022/01/18 00:36:28;;;;;;;32.77;12.40;;;6.10;99.90;;;;;;5060544;28;20484;-61
2022/01/18 00:38:57;;;;;;;28.83;12.60;;;6.10;99.90;;;;;;5060161;28;20465;-61
2022/01/18 00:41:26;;;;;;;26.33;11.93;;;6.10;99.90;;;;;;5059203;28;20975;-61
2022/01/18 00:43:54;;;;;;;34.87;12.53;;;6.10;99.90;;;;;;5060101;28;20937;-61
2022/01/18 00:46:23;;;;;;;26.93;13.50;;;6.10;99.90;;;;;;5060104;28;20459;-61
2022/01/18 00:48:52;;;;;;;29.60;11.57;;;6.10;99.90;;;;;;5060428;28;20496;-61
2022/01/18 00:51:19;;;;;;;29.77;12.17;;;6.10;99.90;;;;;;5058537;28;20493;-61
2022/01/18 00:53:47;;;;;;;27.20;12.50;;;6.20;99.90;;;;;;5059578;28;20734;-61
2022/01/18 00:56:23;;;;;;;24.30;10.10;;;6.10;99.90;;;;;;5060247;28;20462;-61
2022/01/18 00:58:51;;;;;;;24.77;11.00;;;6.10;99.90;;;;;;5059749;28;20466;-61
2022/01/18 01:01:20;;;;;;;24.73;9.37;;;6.20;99.90;;;;;;5058812;28;20523;-61
2022/01/18 01:03:48;;;;;;;26.63;9.33;;;6.20;99.90;;;;;;5059116;28;20949;-61
2022/01/18 01:06:15;;;;;;;28.63;10.20;;;6.20;99.90;;;;;;5060082;28;20761;-62
2022/01/18 01:08:42;;;;;;;20.37;9.03;;;6.20;99.90;;;;;;5059945;28;20462;-62
2022/01/18 01:11:11;;;;;;;25.53;9.60;;;6.20;99.90;;;;;;5058768;28;20466;-61
2022/01/18 01:13:44;;;;;;;18.03;9.00;;;6.30;99.90;;;;;;5059807;28;20462;-61
2022/01/18 01:16:33;;;;;;;22.50;9.43;;;6.30;99.90;;;;;;5039840;28;20918;-62
2022/01/18 01:19:17;;;;;;;21.13;9.60;;;6.30;99.90;;;;;;5039621;28;20474;-61
2022/01/18 01:36:03;;;;;;;17.77;7.77;;;6.10;99.90;;;;;;5058983;28;20711;-62
2022/01/18 01:44:07;;;;;;;22.47;8.47;;;6.10;99.90;;;;;;5039260;28;20787;-62
2022/01/18 01:46:38;;;;;;;18.90;8.13;;;6.10;99.90;;;;;;5057612;28;20615;-62
2022/01/18 01:49:09;;;;;;;18.03;9.00;;;6.10;99.90;;;;;;5059087;28;20467;-61
2022/01/18 01:51:36;;;;;;;19.70;9.87;;;6.10;99.90;;;;;;5059037;28;20508;-62
2022/01/18 01:54:06;;;;;;;25.33;8.30;;;6.10;99.90;;;;;;5058243;28;20463;-62
2022/01/18 01:56:34;;;;;;;26.77;9.10;;;6.00;99.90;;;;;;5058470;28;20792;-62
2022/01/18 01:59:04;;;;;;;16.37;7.10;;;6.00;99.90;;;;;;5058800;28;20523;-61
2022/01/18 02:01:31;;;;;;;23.83;7.87;;;6.00;99.90;;;;;;5058621;28;20818;-61
2022/01/18 02:03:59;;;;;;;15.50;7.80;;;6.00;99.90;;;;;;5057932;28;20833;-62
2022/01/18 02:06:26;;;;;;;18.60;7.03;;;6.00;99.90;;;;;;5058300;28;20490;-61
2022/01/18 02:08:53;;;;;;;17.63;6.77;;;6.00;99.90;;;;;;5058433;28;20459;-62
2022/01/18 02:11:20;;;;;;;12.27;5.87;;;6.00;99.90;;;;;;5057361;28;20462;-62
2022/01/18 02:13:50;;;;;;;19.27;6.10;;;5.90;99.90;;;;;;5058181;28;20874;-61
2022/01/18 02:21:46;;;;;;;15.73;4.97;;;5.90;99.90;;;;;;5057966;28;20829;-61
2022/01/18 02:21:57;;;;;;;12.13;4.90;;;5.90;99.90;;;;;;5058388;28;20728;-61
2022/01/18 02:24:26;;;;;;;14.87;5.37;;;5.90;99.90;;;;;;5057570;28;20490;-61
2022/01/18 02:26:52;;;;;;;15.13;5.57;;;5.90;99.90;;;;;;5058176;28;20511;-62
2022/01/18 02:29:20;;;;;;;15.03;5.33;;;5.90;99.90;;;;;;5058110;28;20470;-62
2022/01/18 02:31:48;;;;;;;12.63;4.30;;;5.90;99.90;;;;;;5058438;28;20902;-62
2022/01/18 02:34:17;;;;;;;14.30;4.80;;;5.90;99.90;;;;;;5057835;28;20508;-62
2022/01/18 02:36:44;;;;;;;11.90;3.53;;;5.90;99.90;;;;;;5057613;28;20462;-62
2022/01/18 02:39:14;;;;;;;13.70;4.30;;;5.80;99.90;;;;;;5057757;28;20462;-62
2022/01/18 02:41:41;;;;;;;15.07;3.97;;;5.90;99.90;;;;;;5058375;28;20458;-62
2022/01/18 02:44:14;;;;;;;12.50;3.97;;;5.80;99.90;;;;;;5058179;28;20850;-61
2022/01/18 02:46:43;;;;;;;11.10;3.57;;;5.80;99.90;;;;;;5057392;28;20549;-61
2022/01/18 02:49:10;;;;;;;16.40;4.10;;;5.80;99.90;;;;;;5057835;28;20466;-61
2022/01/18 02:51:37;;;;;;;10.30;4.13;;;5.80;99.90;;;;;;5057765;28;20462;-61
2022/01/18 02:54:06;;;;;;;9.33;3.97;;;5.80;99.90;;;;;;5058033;28;20486;-61
2022/01/18 02:56:40;;;;;;;11.03;3.90;;;5.80;99.90;;;;;;5058008;28;20462;-61
2022/01/18 02:59:15;;;;;;;9.20;4.07;;;5.90;99.90;;;;;;5058165;28;20533;-61
2022/01/18 03:04:27;;;;;;;13.23;4.77;;;5.90;99.90;;;;;;5056922;28;20480;-61
2022/01/18 03:06:54;;;;;;;11.90;4.97;;;5.90;99.90;;;;;;5057651;28;20462;-61
2022/01/18 03:09:21;;;;;;;14.47;5.53;;;5.90;99.90;;;;;;5058401;28;20462;-61
2022/01/18 03:11:50;;;;;;;17.60;7.40;;;5.90;99.90;;;;;;5058301;28;20459;-61
2022/01/18 03:14:17;;;;;;;17.90;5.83;;;5.90;99.90;;;;;;5057466;28;20508;-61
2022/01/18 03:16:44;;;;;;;16.17;6.83;;;6.00;99.90;;;;;;5057352;28;20462;-61
2022/01/18 03:19:11;;;;;;;14.60;7.23;;;5.90;99.90;;;;;;5058144;28;20528;-61
2022/01/18 03:21:39;;;;;;;21.77;8.30;;;6.00;99.90;;;;;;5058239;28;20508;-61
2022/01/18 03:24:32;;;;;;;22.40;9.40;;;6.00;99.90;;;;;;5057320;28;20580;-61
2022/01/18 03:29:47;;;;;;;23.87;10.20;;;6.00;99.90;;;;;;5060393;28;20446;-61
2022/01/18 03:32:14;;;;;;;25.17;12.53;;;6.00;99.90;;;;;;5060249;28;20520;-59
2022/01/18 03:34:41;;;;;;;20.93;11.00;;;6.00;99.90;;;;;;5059117;28;20512;-60
2022/01/18 03:37:08;;;;;;;17.60;10.40;;;5.90;99.90;;;;;;5059542;28;20773;-61
2022/01/18 03:39:35;;;;;;;30.47;12.97;;;6.00;99.90;;;;;;5060088;28;20466;-60
2022/01/18 03:42:33;;;;;;;30.87;12.70;;;6.00;99.90;;;;;;5060013;28;20883;-61
2022/01/18 03:45:04;;;;;;;21.63;12.17;;;6.00;99.90;;;;;;5058929;28;20851;-60
2022/01/18 03:47:32;;;;;;;21.80;11.80;;;6.00;99.90;;;;;;5059976;28;20441;-61
2022/01/18 03:49:59;;;;;;;21.57;13.00;;;6.00;99.90;;;;;;5059831;28;20462;-57
2022/01/18 03:52:26;;;;;;;25.00;13.87;;;5.90;99.90;;;;;;5059188;28;20476;-58
2022/01/18 03:54:54;;;;;;;21.23;12.43;;;5.90;99.90;;;;;;5059743;28;20455;-61
2022/01/18 03:57:23;;;;;;;24.13;16.70;;;6.00;99.90;;;;;;5061006;28;20551;-60
2022/01/18 03:59:51;;;;;;;30.67;14.50;;;5.90;99.90;;;;;;5060433;28;20491;-60
2022/01/18 04:02:18;;;;;;;30.77;13.87;;;5.90;99.90;;;;;;5059781;28;20433;-60
2022/01/18 04:04:46;;;;;;;27.47;13.13;;;5.90;99.90;;;;;;5060392;28;20494;-60
2022/01/18 04:07:13;;;;;;;31.67;12.97;;;5.90;99.90;;;;;;5059434;28;20473;-60
2022/01/18 04:09:40;;;;;;;19.30;11.10;;;5.90;99.90;;;;;;5060652;28;20472;-61
2022/01/18 04:12:09;;;;;;;22.40;11.23;;;6.00;99.90;;;;;;5060966;28;20469;-60
2022/01/18 04:14:37;;;;;;;28.20;12.30;;;6.00;99.90;;;;;;5060467;28;20458;-61
2022/01/18 04:17:11;;;;;;;28.53;10.80;;;6.00;99.90;;;;;;5060431;28;20466;-60
2022/01/18 04:28:00;;;;;;;25.83;12.50;;;5.90;99.90;;;;;;5060769;28;20491;-61
2022/01/18 04:30:29;;;;;;;29.80;13.17;;;5.80;99.90;;;;;;5060247;28;20469;-61
2022/01/18 04:32:56;;;;;;;22.97;12.80;;;5.80;99.90;;;;;;5061042;28;20496;-61
2022/01/18 04:35:23;;;;;;;42.27;15.90;;;5.90;99.90;;;;;;5060280;28;20455;-61
2022/01/18 04:37:50;;;;;;;20.90;12.10;;;5.80;99.90;;;;;;5059385;28;20462;-61
2022/01/18 04:40:19;;;;;;;22.17;11.83;;;5.80;99.90;;;;;;5058770;28;20466;-61
2022/01/18 04:48:27;;;;;;;27.07;11.70;;;5.80;99.90;;;;;;5059113;28;20416;-61
2022/01/18 04:50:55;;;;;;;19.00;9.43;;;5.80;99.90;;;;;;5059277;28;20557;-61
2022/01/18 04:53:22;;;;;;;18.60;11.13;;;5.80;99.90;;;;;;5059835;28;20512;-61
2022/01/18 04:55:54;;;;;;;21.27;11.17;;;5.80;99.90;;;;;;5059274;28;20520;-61
2022/01/18 04:58:22;;;;;;;22.13;10.63;;;5.80;99.90;;;;;;5059555;28;20463;-61
2022/01/18 05:00:53;;;;;;;22.30;9.87;;;5.70;99.90;;;;;;5059695;28;20462;-61
2022/01/18 05:03:20;;;;;;;24.03;9.90;;;5.70;99.90;;;;;;5059276;28;20531;-61
2022/01/18 05:05:49;;;;;;;20.07;11.40;;;5.70;99.90;;;;;;5059453;28;20535;-61
2022/01/18 05:08:18;;;;;;;24.67;11.27;;;5.70;99.90;;;;;;5059497;28;20466;-61
2022/01/18 05:10:51;;;;;;;19.33;10.67;;;5.70;99.90;;;;;;5058632;28;20505;-61
2022/01/18 05:13:34;;;;;;;24.83;11.30;;;5.80;99.90;;;;;;5058979;28;20484;-62
2022/01/18 05:16:19;;;;;;;17.30;10.23;;;5.70;99.90;;;;;;5059225;28;20458;-61
2022/01/18 05:24:30;;;;;;;27.27;11.50;;;5.70;99.90;;;;;;5058957;28;20466;-62
2022/01/18 05:26:58;;;;;;;18.57;10.93;;;5.60;99.90;;;;;;5058980;28;20468;-61
2022/01/18 05:29:25;;;;;;;26.83;12.77;;;5.70;99.90;;;;;;5059167;28;20516;-62
2022/01/18 05:31:54;;;;;;;21.20;11.90;;;5.70;99.90;;;;;;5047146;28;20527;-61
2022/01/18 05:34:21;;;;;;;29.13;13.60;;;5.70;99.90;;;;;;5059168;28;20547;-62
2022/01/18 05:36:49;;;;;;;21.27;13.73;;;5.70;99.90;;;;;;5058156;28;20462;-61
2022/01/18 05:39:16;;;;;;;31.40;12.87;;;5.70;99.90;;;;;;5058596;28;20462;-61
2022/01/18 05:41:44;;;;;;;25.00;13.03;;;5.70;99.90;;;;;;5059297;28;20466;-62
2022/01/18 05:44:12;;;;;;;27.47;12.20;;;5.60;99.90;;;;;;5057972;28;20490;-61
2022/01/18 05:46:39;;;;;;;27.50;12.43;;;5.60;99.90;;;;;;5059176;28;20491;-62
2022/01/18 05:49:10;;;;;;;21.97;13.40;;;5.60;99.90;;;;;;5059617;28;20523;-61
2022/01/18 05:51:37;;;;;;;31.23;13.50;;;5.60;99.90;;;;;;5058495;28;20432;-62
2022/01/18 05:54:06;;;;;;;24.87;14.77;;;5.60;99.90;;;;;;5058662;28;20485;-62
2022/01/18 05:56:33;;;;;;;35.10;13.70;;;5.60;99.90;;;;;;5058913;28;20505;-62
2022/01/18 05:59:05;;;;;;;23.87;13.73;;;5.60;99.90;;;;;;5058733;28;20780;-62
2022/01/18 06:01:38;;;;;;;26.47;13.77;;;5.60;99.90;;;;;;5059024;28;20465;-61
2022/01/18 06:04:19;;;;;;;28.40;16.17;;;5.70;99.90;;;;;;5057124;28;20877;-61
2022/01/18 06:06:52;;;;;;;26.43;13.90;;;5.70;99.90;;;;;;5058660;28;20917;-62
2022/01/18 06:09:20;;;;;;;28.03;14.97;;;5.70;99.90;;;;;;5056143;28;20469;-63
2022/01/18 06:11:47;;;;;;;20.13;13.57;;;5.80;99.90;;;;;;5056217;28;20976;-63
2022/01/18 06:14:17;;;;;;;21.20;12.67;;;5.70;99.90;;;;;;5056820;28;20458;-63
2022/01/18 06:16:44;;;;;;;21.83;12.60;;;5.70;99.90;;;;;;5055566;28;20466;-63
2022/01/18 06:19:15;;;;;;;26.97;12.17;;;5.70;99.90;;;;;;5055760;28;20945;-63
2022/01/18 06:21:43;;;;;;;28.27;13.03;;;5.70;99.90;;;;;;5055617;28;20472;-63
2022/01/18 06:24:11;;;;;;;25.50;14.53;;;5.80;99.90;;;;;;5054622;28;20545;-63
2022/01/18 06:26:39;;;;;;;24.90;13.17;;;5.70;99.90;;;;;;5056166;28;20725;-63
2022/01/18 06:29:06;;;;;;;28.10;12.03;;;5.70;99.90;;;;;;5056334;28;20496;-63
2022/01/18 06:31:33;;;;;;;18.60;12.53;;;5.70;99.90;;;;;;5056141;28;20473;-63
2022/01/18 06:34:00;;;;;;;27.07;14.10;;;5.70;99.90;;;;;;5058786;28;20456;-62
2022/01/18 06:36:29;;;;;;;28.60;14.17;;;5.70;99.90;;;;;;5063281;28;20799;-63
2022/01/18 06:38:56;;;;;;;20.40;13.10;;;5.60;99.90;;;;;;5064066;28;20462;-63
2022/01/18 06:41:23;;;;;;;37.73;14.93;;;5.70;99.90;;;;;;5065826;28;20461;-63
2022/01/18 06:43:51;;;;;;;30.87;14.67;;;5.70;99.90;;;;;;5061209;28;20464;-63
2022/01/18 06:46:21;;;;;;;29.53;14.37;;;5.60;99.90;;;;;;5056014;28;20474;-62
2022/01/18 06:48:48;;;;;;;28.07;15.17;;;5.60;99.90;;;;;;5055896;28;20462;-63
2022/01/18 06:51:18;;;;;;;31.33;15.70;;;5.60;99.90;;;;;;5056180;28;20501;-62
2022/01/18 06:53:49;;;;;;;33.93;16.50;;;5.60;99.90;;;;;;5054623;28;20498;-62
2022/01/18 06:56:17;;;;;;;36.13;18.90;;;5.60;99.90;;;;;;5054954;28;20755;-62
2022/01/18 06:58:48;;;;;;;40.23;19.37;;;5.70;99.90;;;;;;5055434;28;20789;-63
2022/01/18 07:01:17;;;;;;;37.90;20.10;;;5.60;99.90;;;;;;5056550;28;20462;-62
2022/01/18 07:03:48;;;;;;;31.40;18.00;;;5.60;99.90;;;;;;5058984;28;20468;-63
2022/01/18 07:06:16;;;;;;;48.17;19.53;;;5.60;99.90;;;;;;5059355;28;20490;-62
2022/01/18 07:08:43;;;;;;;37.03;20.27;;;5.60;99.90;;;;;;5060851;28;20466;-63
2022/01/18 07:11:16;;;;;;;35.30;18.83;;;5.60;99.90;;;;;;5060096;28;20509;-63
2022/01/18 07:13:43;;;;;;;37.70;20.07;;;5.60;99.90;;;;;;5060383;28;20469;-63
2022/01/18 07:16:10;;;;;;;37.17;21.83;;;5.60;99.90;;;;;;5060114;28;20470;-63
2022/01/18 07:18:37;;;;;;;40.40;21.10;;;5.60;99.90;;;;;;5059917;28;20470;-63
2022/01/18 07:21:10;;;;;;;41.50;21.10;;;5.60;99.90;;;;;;5059389;28;20945;-62
2022/01/18 07:23:37;;;;;;;38.47;21.80;;;5.60;99.90;;;;;;5060220;28;20470;-63
2022/01/18 07:26:05;;;;;;;39.27;20.90;;;5.60;99.90;;;;;;5060035;28;20501;-63
2022/01/18 07:28:33;;;;;;;42.17;19.97;;;5.60;99.90;;;;;;5059881;28;20466;-63
2022/01/18 07:31:01;;;;;;;41.33;22.60;;;5.60;99.90;;;;;;5060229;28;20466;-63
2022/01/18 07:33:28;;;;;;;37.07;20.03;;;5.50;99.90;;;;;;5059842;28;20534;-63
2022/01/18 07:35:55;;;;;;;50.60;22.53;;;5.60;99.90;;;;;;5059525;28;20454;-63
2022/01/18 07:38:30;;;;;;;47.37;21.90;;;5.50;99.90;;;;;;5059486;28;20535;-63
2022/01/18 07:40:58;;;;;;;43.60;21.47;;;5.50;99.90;;;;;;5059969;28;20795;-63
2022/01/18 07:43:27;;;;;;;49.40;22.93;;;5.60;99.90;;;;;;5059837;28;20577;-63
2022/01/18 07:45:55;;;;;;;42.60;22.60;;;5.60;99.90;;;;;;5059576;28;20532;-62
2022/01/18 07:48:23;;;;;;;37.63;22.90;;;5.60;99.90;;;;;;5059427;28;20465;-63
2022/01/18 07:50:53;;;;;;;44.17;22.80;;;5.60;99.90;;;;;;5059329;28;20504;-63
2022/01/18 07:53:21;;;;;;;42.60;21.93;;;5.70;99.90;;;;;;5059362;28;20473;-63
2022/01/18 07:55:49;;;;;;;38.53;19.30;;;5.60;99.90;;;;;;5059610;28;20512;-63
2022/01/18 07:58:17;;;;;;;36.30;19.83;;;5.70;99.90;;;;;;5059044;28;20757;-63
2022/01/18 08:00:44;;;;;;;33.57;20.37;;;5.60;99.90;;;;;;5059085;28;20472;-63
2022/01/18 08:03:12;;;;;;;34.50;20.67;;;5.70;99.90;;;;;;5059651;28;20455;-63
2022/01/18 08:05:40;;;;;;;32.23;20.20;;;5.70;99.90;;;;;;5059011;28;20494;-63
2022/01/18 08:08:08;;;;;;;36.47;21.23;;;5.80;99.90;;;;;;5059361;28;20465;-63
2022/01/18 08:10:35;;;;;;;46.83;25.30;;;5.90;99.90;;;;;;5058687;28;20754;-63
2022/01/18 08:13:04;;;;;;;40.43;22.33;;;5.90;99.90;;;;;;5058599;28;20466;-63
2022/01/18 08:15:38;;;;;;;42.80;21.90;;;5.90;99.90;;;;;;5058546;28;20458;-63
2022/01/18 08:18:07;;;;;;;42.87;22.90;;;5.90;99.90;;;;;;5059232;28;20531;-63
2022/01/18 08:20:36;;;;;;;34.43;20.30;;;5.90;99.90;;;;;;5057789;28;20494;-63
2022/01/18 08:23:04;;;;;;;33.30;20.63;;;5.90;99.90;;;;;;5059137;28;20466;-63
2022/01/18 08:25:39;;;;;;;30.67;19.60;;;6.00;99.90;;;;;;5058698;28;21015;-63
2022/01/18 08:28:06;;;;;;;42.07;21.67;;;6.00;99.90;;;;;;5059061;28;20465;-63
2022/01/18 08:30:33;;;;;;;41.53;23.70;;;6.00;99.90;;;;;;5058535;28;20470;-63
2022/01/18 08:33:00;;;;;;;42.83;20.10;;;6.00;99.90;;;;;;5059633;28;20747;-63
2022/01/18 08:35:27;;;;;;;36.70;20.40;;;6.00;99.90;;;;;;5062520;28;20893;-63
2022/01/18 08:37:56;;;;;;;34.93;21.20;;;6.10;99.90;;;;;;5079436;28;20461;-63
2022/01/18 08:40:23;;;;;;;42.03;20.90;;;6.10;99.90;;;;;;5074115;28;20462;-63
2022/01/18 08:42:50;;;;;;;34.90;19.90;;;6.10;99.90;;;;;;5058881;28;20531;-62
2022/01/18 08:45:20;;;;;;;33.73;18.07;;;6.10;99.90;;;;;;5057863;28;20497;-62
2022/01/18 08:47:47;;;;;;;32.10;18.07;;;6.10;99.90;;;;;;5058486;28;20470;-62
2022/01/18 08:50:14;;;;;;;40.13;18.97;;;6.20;99.90;;;;;;5057782;28;20466;-62
2022/01/18 08:52:44;;;;;;;25.90;17.93;;;6.30;99.90;;;;;;5057929;28;20458;-62
2022/01/18 08:55:15;;;;;;;35.37;18.70;;;6.30;99.90;;;;;;5057657;28;20655;-62
2022/01/18 08:57:42;;;;;;;34.10;18.73;;;6.40;99.90;;;;;;5058064;28;20462;-62
2022/01/18 09:00:11;;;;;;;38.53;19.47;;;6.50;99.90;;;;;;5058434;28;20463;-62
2022/01/18 09:02:39;;;;;;;25.67;17.90;;;6.50;99.90;;;;;;5057346;28;20473;-62
2022/01/18 09:05:07;;;;;;;31.57;18.07;;;6.50;99.90;;;;;;5057235;28;20482;-62
2022/01/18 09:07:40;;;;;;;36.33;17.97;;;6.60;99.90;;;;;;5057618;28;20473;-63
2022/01/18 09:10:10;;;;;;;34.10;17.97;;;6.60;99.90;;;;;;5057920;28;20875;-62
2022/01/18 09:12:40;;;;;;;30.00;15.83;;;6.60;99.90;;;;;;5057356;28;20466;-62
2022/01/18 09:15:09;;;;;;;29.70;17.50;;;6.70;99.90;;;;;;5057852;28;20486;-63
2022/01/18 09:17:37;;;;;;;29.03;17.43;;;6.70;99.90;;;;;;5056843;28;20876;-62
2022/01/18 09:20:10;;;;;;;32.57;16.40;;;6.70;99.90;;;;;;5057550;28;20490;-62
2022/01/18 09:22:39;;;;;;;33.23;16.10;;;6.80;99.90;;;;;;5057061;28;20917;-62
2022/01/18 09:25:09;;;;;;;29.73;16.60;;;6.80;99.90;;;;;;5057013;28;20540;-63
2022/01/18 09:27:38;;;;;;;30.97;17.33;;;6.60;99.90;;;;;;5057731;28;20469;-63
2022/01/18 09:30:07;;;;;;;30.33;16.00;;;6.70;99.90;;;;;;5057985;28;20946;-62
2022/01/18 09:32:43;;;;;;;26.53;16.50;;;6.90;99.90;;;;;;5056621;28;20462;-63
2022/01/18 09:35:11;;;;;;;29.07;17.33;;;7.00;99.90;;;;;;5057324;28;20466;-62
2022/01/18 09:37:43;;;;;;;33.73;21.03;;;7.10;99.90;;;;;;5056752;28;20492;-62
2022/01/18 09:40:18;;;;;;;34.27;18.53;;;7.10;99.90;;;;;;5057689;28;20473;-62
2022/01/18 09:42:46;;;;;;;32.33;20.07;;;7.10;99.90;;;;;;5057594;28;20519;-62
2022/01/18 09:45:17;;;;;;;29.60;15.97;;;7.10;99.90;;;;;;5056968;28;20472;-62
2022/01/18 09:47:47;;;;;;;31.57;16.13;;;7.20;99.90;;;;;;5057693;28;20462;-62
2022/01/18 09:50:18;;;;;;;21.80;14.80;;;7.20;99.90;;;;;;5057164;28;20867;-62
2022/01/18 09:52:52;;;;;;;28.30;15.50;;;7.20;99.90;;;;;;5037370;28;20462;-62
2022/01/18 09:55:20;;;;;;;26.03;16.00;;;7.20;99.90;;;;;;5052438;28;20828;-62
2022/01/18 09:57:49;;;;;;;25.60;15.33;;;7.30;99.90;;;;;;5057253;28;20923;-62
2022/01/18 10:00:17;;;;;;;34.20;14.40;;;7.30;99.90;;;;;;5056988;28;20524;-63
2022/01/18 10:02:44;;;;;;;29.87;15.27;;;7.30;99.90;;;;;;5057587;28;20564;-63
2022/01/18 10:05:22;;;;;;;26.53;15.70;;;7.30;99.90;;;;;;5056792;28;20466;-63
2022/01/18 10:08:01;;;;;;;30.47;14.60;;;7.20;99.90;;;;;;5057826;28;20458;-63
2022/01/18 10:10:41;;;;;;;26.70;13.70;;;7.20;99.90;;;;;;5057546;28;20469;-63
2022/01/18 10:13:16;;;;;;;28.23;14.40;;;7.20;99.90;;;;;;5057588;28;20475;-63
2022/01/18 10:16:00;;;;;;;27.73;13.80;;;7.20;99.90;;;;;;5056343;28;20461;-63
2022/01/18 10:18:43;;;;;;;29.03;13.97;;;7.30;99.90;;;;;;5056602;28;20466;-63
2022/01/18 10:21:11;;;;;;;23.57;13.53;;;7.20;99.90;;;;;;5056410;28;20596;-63
2022/01/18 10:23:38;;;;;;;37.40;14.70;;;7.20;99.90;;;;;;5057305;28;20473;-63
2022/01/18 10:26:23;;;;;;;28.30;15.20;;;7.20;99.90;;;;;;5056686;28;20461;-63
2022/01/18 10:29:02;;;;;;;27.13;14.23;;;7.40;99.90;;;;;;5056578;28;20458;-64
2022/01/18 10:31:39;;;;;;;36.27;14.17;;;7.50;99.90;;;;;;5056846;28;20507;-62
2022/01/18 10:34:27;;;;;;;23.60;13.70;;;7.80;99.90;;;;;;5057357;28;20441;-62
2022/01/18 10:37:03;;;;;;;25.13;13.77;;;8.00;99.90;;;;;;5063367;28;20464;-62
2022/01/18 10:39:33;;;;;;;22.37;13.37;;;8.00;99.90;;;;;;5067621;28;20487;-62
2022/01/18 10:42:03;;;;;;;25.00;16.00;;;8.00;99.90;;;;;;5072281;28;20446;-63
2022/01/18 10:44:36;;;;;;;28.70;15.60;;;8.20;99.90;;;;;;5067690;28;20450;-62
2022/01/18 10:47:05;;;;;;;22.83;13.47;;;8.30;99.90;;;;;;5068689;28;20532;-62
2022/01/18 10:49:40;;;;;;;25.87;13.50;;;8.40;99.90;;;;;;5070119;28;20515;-62
2022/01/18 10:52:09;;;;;;;32.40;14.27;;;8.40;99.90;;;;;;5067302;28;20457;-62
2022/01/18 10:54:43;;;;;;;24.87;12.43;;;8.40;99.90;;;;;;5069284;28;20492;-62
2022/01/18 10:57:12;;;;;;;22.67;12.20;;;8.50;99.90;;;;;;5069616;28;20439;-63
2022/01/18 10:59:42;;;;;;;21.40;14.10;;;8.40;99.90;;;;;;5067516;28;20485;-63
2022/01/18 11:02:15;;;;;;;18.50;12.80;;;8.50;99.90;;;;;;5066012;28;20953;-63
2022/01/18 11:04:45;;;;;;;27.70;12.50;;;8.50;99.90;;;;;;5070875;28;20436;-63
2022/01/18 11:07:16;;;;;;;20.07;13.43;;;8.40;99.90;;;;;;5068309;28;20477;-63
2022/01/18 11:09:43;;;;;;;18.47;12.20;;;8.50;99.90;;;;;;5060737;28;20465;-63
2022/01/18 11:12:11;;;;;;;19.17;13.33;;;8.50;99.90;;;;;;5060069;28;20466;-63
2022/01/18 11:14:47;;;;;;;20.73;12.57;;;8.60;99.90;;;;;;5060482;28;20496;-63
2022/01/18 11:17:23;;;;;;;23.00;12.57;;;8.60;99.90;;;;;;5059929;28;20461;-63
2022/01/18 11:19:52;;;;;;;32.93;15.17;;;8.70;99.90;;;;;;5059729;28;20778;-63
2022/01/18 11:22:23;;;;;;;26.93;13.67;;;8.70;99.90;;;;;;5059897;28;20966;-63
2022/01/18 11:24:52;;;;;;;22.83;11.90;;;8.70;99.90;;;;;;5059869;28;20501;-63
2022/01/18 11:27:23;;;;;;;22.87;13.43;;;8.70;99.90;;;;;;5059836;28;20547;-63
2022/01/18 11:29:53;;;;;;;28.13;12.23;;;8.60;99.90;;;;;;5058897;28;20503;-63
2022/01/18 11:32:25;;;;;;;18.43;11.83;;;8.70;99.90;;;;;;5059845;28;20493;-62
2022/01/18 11:35:04;;;;;;;20.83;12.37;;;8.60;99.90;;;;;;5059809;28;20554;-63
2022/01/18 11:37:41;;;;;;;24.20;13.73;;;8.60;99.90;;;;;;5039426;28;20512;-62
2022/01/18 11:40:11;;;;;;;25.33;12.93;;;8.70;99.90;;;;;;5054202;28;20457;-62
2022/01/18 11:42:41;;;;;;;22.30;12.60;;;8.60;99.90;;;;;;5059827;28;20508;-62
2022/01/18 11:45:37;;;;;;;26.27;12.73;;;8.70;1.00;;;;;;5059927;28;20458;-63
2022/01/18 11:48:13;;;;;;;18.07;12.23;;;8.70;99.90;;;;;;5057887;28;20508;-62
2022/01/18 11:50:43;;;;;;;18.77;11.37;;;8.60;68.80;;;;;;5058773;28;20531;-62
2022/01/18 11:53:24;;;;;;;19.20;12.50;;;8.40;1.00;;;;;;5058963;28;20466;-62
2022/01/18 11:55:54;;;;;;;24.17;11.40;;;8.40;1.00;;;;;;5059260;28;20463;-62
2022/01/18 11:58:21;;;;;;;17.80;11.63;;;8.50;1.00;;;;;;5059466;28;20462;-62
2022/01/18 12:00:53;;;;;;;21.70;12.10;;;8.60;1.00;;;;;;5058624;28;20469;-62
2022/01/18 12:03:23;;;;;;;15.73;10.20;;;8.60;99.90;;;;;;5058884;28;20786;-62
2022/01/18 12:05:51;;;;;;;22.70;11.13;;;8.60;1.00;;;;;;5059671;28;20504;-62
2022/01/18 12:08:39;;;;;;;20.70;10.83;;;8.60;1.00;;;;;;5058975;28;20469;-62
2022/01/18 12:11:11;;;;;;;15.47;10.27;;;8.70;1.00;;;;;;5058415;28;20737;-62
2022/01/18 12:13:47;;;;;;;20.13;9.83;;;8.70;1.00;;;;;;5058660;28;20466;-62
2022/01/18 12:16:29;;;;;;;15.60;7.93;;;8.80;99.90;;;;;;5059271;28;20465;-62
2022/01/18 12:18:59;;;;;;;14.80;9.70;;;8.70;99.90;;;;;;5057831;28;20804;-62
2022/01/18 12:21:31;;;;;;;15.40;9.07;;;8.70;99.90;;;;;;5058419;28;20771;-62
2022/01/18 12:24:14;;;;;;;19.53;9.20;;;8.60;99.90;;;;;;5058436;28;20462;-62
2022/01/18 12:26:45;;;;;;;40.80;22.00;;;8.60;99.90;;;;;;5059090;28;20497;-62
2022/01/18 12:35:01;;;;;;;10.90;8.03;;;8.30;23.10;;;;;;5056148;28;20534;-62
2022/01/18 12:37:40;;;;;;;13.33;8.77;;;8.50;99.90;;;;;;5062305;28;20543;-62
2022/01/18 12:40:11;;;;;;;22.67;10.53;;;8.50;99.90;;;;;;5065946;28;20515;-62
2022/01/18 12:45:29;;;;;;;19.67;8.93;;;8.50;99.90;;;;;;5046356;28;20449;-62
2022/01/18 12:48:00;;;;;;;15.60;7.87;;;8.50;99.90;;;;;;5057807;28;21008;-62
2022/01/18 12:50:30;;;;;;;14.70;7.83;;;8.40;99.90;;;;;;5057037;28;20466;-62
2022/01/18 12:53:00;;;;;;;11.80;7.90;;;8.40;99.90;;;;;;5057115;28;20462;-62
2022/01/18 12:55:29;;;;;;;13.47;7.90;;;8.30;99.90;;;;;;5058188;28;20470;-62
2022/01/18 12:58:01;;;;;;;22.67;9.77;;;8.30;99.90;;;;;;5058247;28;20512;-62
2022/01/18 13:00:29;;;;;;;15.93;8.87;;;8.20;99.90;;;;;;5056730;28;20461;-62
2022/01/18 13:03:02;;;;;;;15.93;8.67;;;8.30;99.90;;;;;;5056291;28;20459;-62
2022/01/18 13:05:40;;;;;;;18.03;9.87;;;8.30;99.90;;;;;;5057328;28;20597;-62
2022/01/18 13:08:12;;;;;;;16.53;8.20;;;8.30;99.90;;;;;;5056616;28;20481;-62
2022/01/18 13:10:42;;;;;;;11.63;8.13;;;8.40;99.90;;;;;;5056915;28;20491;-62
2022/01/18 13:13:16;;;;;;;13.30;8.03;;;8.40;99.90;;;;;;5048785;28;20579;-62
2022/01/18 13:16:03;;;;;;;18.43;7.50;;;8.30;99.90;;;;;;5051655;28;20549;-62
2022/01/18 13:24:27;;;;;;;18.50;9.00;;;8.50;99.90;;;;;;5049939;28;20826;-62
2022/01/18 13:26:58;;;;;;;16.70;10.10;;;8.40;99.90;;;;;;5057002;28;20788;-62
2022/01/18 13:29:27;;;;;;;18.03;11.77;;;8.40;94.30;;;;;;5057838;28;20895;-63
2022/01/18 13:32:04;;;;;;;23.40;13.53;;;8.50;99.90;;;;;;5057740;28;20750;-63
2022/01/18 13:34:35;;;;;;;36.17;17.23;;;8.40;99.90;;;;;;5057083;28;20462;-62
2022/01/18 13:37:04;;;;;;;30.50;17.00;;;8.40;99.90;;;;;;5057374;28;20460;-62
2022/01/18 13:39:39;;;;;;;32.37;19.37;;;8.20;99.90;;;;;;5059109;28;20520;-62
2022/01/18 13:42:10;;;;;;;35.90;21.07;;;8.10;1.00;;;;;;5058414;28;20544;-62
2022/01/18 13:44:38;;;;;;;33.53;18.80;;;8.10;1.00;;;;;;5055818;28;20468;-62
2022/01/18 13:47:22;;;;;;;38.20;18.80;;;8.10;1.00;;;;;;5057891;28;20489;-62
2022/01/18 13:49:55;;;;;;;32.63;20.20;;;8.00;25.50;;;;;;5057785;28;20462;-62
2022/01/18 13:52:30;;;;;;;27.37;16.60;;;7.90;1.00;;;;;;5057747;28;20551;-62
2022/01/18 13:54:57;;;;;;;32.10;17.50;;;7.90;1.00;;;;;;5056934;28;20465;-62
2022/01/18 13:57:24;;;;;;;27.37;15.47;;;7.90;1.00;;;;;;5056771;28;20937;-62
2022/01/18 13:59:53;;;;;;;33.40;16.47;;;7.90;1.00;;;;;;5057062;28;20775;-62
2022/01/18 14:02:21;;;;;;;40.07;18.00;;;7.90;1.00;;;;;;5057421;28;20511;-62